createdAt,value
2022-11-07T00:03:46.940Z,9
2022-11-07T00:08:48.949Z,9.1
2022-11-07T00:13:50.973Z,9.1
2022-11-07T00:18:53.050Z,8.9
2022-11-07T00:23:55.540Z,8.8
2022-11-07T00:28:57.743Z,8.7
2022-11-07T00:34:00.040Z,8.7
2022-11-07T00:39:02.101Z,8.8
2022-11-07T00:44:04.198Z,8.7
2022-11-07T00:49:06.213Z,8.7
2022-11-07T00:54:08.258Z,8.5
2022-11-07T00:59:10.541Z,8.1
2022-11-07T01:04:12.729Z,8
2022-11-07T01:09:14.744Z,7.9
2022-11-07T01:19:17.671Z,7.8
2022-11-07T01:24:19.838Z,7.8
2022-11-07T01:29:21.869Z,7.7
2022-11-07T01:34:24.001Z,7.6
2022-11-07T01:39:26.276Z,7.8
2022-11-07T01:49:28.696Z,7.8
2022-11-07T01:54:30.666Z,7.8
2022-11-07T01:59:32.715Z,7.7
2022-11-07T02:04:35.315Z,7.6
2022-11-07T02:09:37.310Z,7.8
2022-11-07T02:14:39.318Z,7.8
2022-11-07T02:19:41.310Z,7.7
2022-11-07T02:24:43.339Z,7.7
2022-11-07T02:29:45.309Z,7.7
2022-11-07T02:34:47.263Z,7.5
2022-11-07T02:39:49.330Z,7.4
2022-11-07T02:44:51.980Z,7
2022-11-07T02:49:54.146Z,6.9
2022-11-07T02:54:56.101Z,6.8
2022-11-07T02:59:58.172Z,6.8
2022-11-07T03:05:00.161Z,6.7
2022-11-07T03:10:03.181Z,6.8
2022-11-07T03:15:05.709Z,7
2022-11-07T03:20:07.787Z,7
2022-11-07T03:25:09.759Z,7.2
2022-11-07T03:30:11.863Z,6.9
2022-11-07T03:35:13.893Z,7.1
2022-11-07T03:40:16.008Z,7.6
2022-11-07T03:45:18.308Z,7.7
2022-11-07T03:55:21.362Z,7.9
2022-11-07T04:00:23.304Z,7.8
2022-11-07T04:05:25.861Z,8.1
2022-11-07T04:10:27.910Z,8
2022-11-07T04:15:29.981Z,8.2
2022-11-07T04:20:32.058Z,8.3
2022-11-07T04:25:33.993Z,8.3
2022-11-07T04:30:35.985Z,8.1
2022-11-07T04:35:38.022Z,8.1
2022-11-07T04:40:40.023Z,7.9
2022-11-07T04:45:42.565Z,7.9
2022-11-07T04:50:44.582Z,8.1
2022-11-07T04:55:46.470Z,8.2
2022-11-07T05:00:48.413Z,8.2
2022-11-07T05:05:50.498Z,8.3
2022-11-07T05:10:52.510Z,8.3
2022-11-07T05:15:54.633Z,8.3
2022-11-07T05:20:56.578Z,8.1
2022-11-07T05:25:58.579Z,8.3
2022-11-07T05:31:00.598Z,8.1
2022-11-07T05:36:02.539Z,8.2
2022-11-07T05:41:04.523Z,8.3
2022-11-07T05:46:06.556Z,8.3
2022-11-07T05:51:09.426Z,8.5
2022-11-07T06:01:12.370Z,8.6
2022-11-07T06:06:14.349Z,8.7
2022-11-07T06:11:16.809Z,8.9
2022-11-07T06:16:18.816Z,8.9
2022-11-07T06:21:20.856Z,9.1
2022-11-07T06:26:22.934Z,9
2022-11-07T06:31:25.529Z,9.2
2022-11-07T06:36:28.502Z,9.2
2022-11-07T06:41:30.873Z,9.2
2022-11-07T06:46:33.042Z,9.1
2022-11-07T06:51:35.079Z,9.2
2022-11-07T06:56:37.289Z,9.3
2022-11-07T07:01:39.880Z,9.1
2022-11-07T07:06:42.212Z,9.1
2022-11-07T07:11:44.292Z,9.2
2022-11-07T07:16:46.782Z,9.3
2022-11-07T07:21:48.799Z,9.3
2022-11-07T07:26:53.825Z,9.4
2022-11-07T07:31:55.831Z,9.7
2022-11-07T07:36:58.108Z,9.8
2022-11-07T07:42:00.064Z,10.5
2022-11-07T07:47:12.250Z,13.9
2022-11-07T07:52:04.139Z,13.9
2022-11-07T07:57:06.122Z,13.9
2022-11-07T08:02:08.236Z,13.4
2022-11-07T08:07:10.398Z,12.5
2022-11-07T08:12:12.291Z,12.6
2022-11-07T08:17:15.707Z,12.2
2022-11-07T08:22:17.593Z,12.1
2022-11-07T08:27:19.536Z,12.2
2022-11-07T08:32:21.729Z,12.1
2022-11-07T08:37:23.760Z,12.2
2022-11-07T08:42:26.001Z,12.4
2022-11-07T08:47:28.209Z,12.3
2022-11-07T08:52:30.250Z,12.1
2022-11-07T08:57:32.350Z,12.3
2022-11-07T09:03:53.217Z,12.4
2022-11-07T09:07:39.848Z,12.5
2022-11-07T09:12:41.828Z,12.9
2022-11-07T09:17:44.080Z,13.4
2022-11-07T09:22:46.131Z,13.9
2022-11-07T09:27:48.041Z,13.8
2022-11-07T09:32:50.027Z,13.2
2022-11-07T09:37:51.976Z,13
2022-11-07T09:42:53.888Z,12.7
2022-11-07T09:47:55.864Z,13.5
2022-11-07T09:52:58.351Z,13.8
2022-11-07T09:58:00.303Z,13.8
2022-11-07T10:03:02.167Z,13.3
2022-11-07T10:08:04.729Z,12.8
2022-11-07T10:13:06.605Z,12.8
2022-11-07T10:18:09.671Z,12.9
2022-11-07T10:23:12.155Z,12.9
2022-11-07T10:28:14.486Z,12.9
2022-11-07T10:33:17.612Z,12.9
2022-11-07T10:38:20.046Z,12.9
2022-11-07T10:43:22.012Z,12.9
2022-11-07T10:48:24.032Z,13
2022-11-07T10:53:25.987Z,13.3
2022-11-07T10:58:27.921Z,13
2022-11-07T11:03:46.613Z,12.9
2022-11-07T11:08:38.556Z,12.9
2022-11-07T11:13:40.647Z,12.8
2022-11-07T11:18:42.601Z,12.8
2022-11-07T11:23:44.594Z,12.8
2022-11-07T11:28:46.654Z,12.8
2022-11-07T11:33:48.663Z,12.8
2022-11-07T11:38:50.557Z,12.9
2022-11-07T11:43:52.488Z,13
2022-11-07T11:48:54.702Z,12.9
2022-11-07T11:53:56.934Z,13
2022-11-07T11:58:58.852Z,12.9
2022-11-07T12:04:09.231Z,12.8
2022-11-07T12:14:01.556Z,12.8
2022-11-07T12:19:03.510Z,12.7
2022-11-07T12:24:06.095Z,12.6
2022-11-07T12:29:08.042Z,12.6
2022-11-07T12:34:10.033Z,12.6
2022-11-07T12:39:11.965Z,12.4
2022-11-07T12:44:13.863Z,12.4
2022-11-07T12:49:16.277Z,12.4
2022-11-07T12:54:18.378Z,12.4
2022-11-07T12:59:20.376Z,12.4
2022-11-07T13:04:22.401Z,12.5
2022-11-07T13:09:24.381Z,12.6
2022-11-07T13:14:26.420Z,12.7
2022-11-07T13:19:34.531Z,13
2022-11-07T13:24:36.475Z,13
2022-11-07T13:29:38.439Z,12.9
2022-11-07T13:34:40.569Z,12.9
2022-11-07T13:39:42.477Z,12.8
2022-11-07T13:44:44.460Z,12.8
2022-11-07T13:49:47.154Z,12.8
2022-11-07T13:54:49.026Z,12.8
2022-11-07T13:59:51.171Z,12.9
2022-11-07T14:05:19.067Z,13.3
2022-11-07T14:10:01.098Z,13.3
2022-11-07T14:15:03.060Z,13.3
2022-11-07T14:20:05.207Z,13.4
2022-11-07T14:25:07.142Z,13.2
2022-11-07T14:30:09.056Z,13.2
2022-11-07T14:35:11.060Z,13.2
2022-11-07T14:40:13.090Z,12.9
2022-11-07T14:45:15.073Z,12.7
2022-11-07T14:50:17.093Z,12.5
2022-11-07T14:55:19.373Z,12.3
2022-11-07T15:00:21.336Z,12.2
2022-11-07T15:05:23.678Z,12.1
2022-11-07T15:10:26.655Z,11.9
2022-11-07T15:15:28.714Z,11.9
2022-11-07T15:20:30.939Z,11.8
2022-11-07T15:25:32.930Z,11.7
2022-11-07T15:30:34.965Z,11.6
2022-11-07T15:35:46.405Z,11.5
2022-11-07T15:40:38.245Z,11.5
2022-11-07T15:45:40.219Z,11.4
2022-11-07T15:50:42.296Z,11.4
2022-11-07T15:55:44.339Z,11.3
2022-11-07T16:00:46.490Z,11.2
2022-11-07T16:05:52.302Z,11.1
2022-11-07T16:11:00.736Z,11.2
2022-11-07T16:16:31.369Z,11.1
2022-11-07T16:21:13.523Z,11.1
2022-11-07T16:26:15.464Z,11
2022-11-07T16:31:17.430Z,10.9
2022-11-07T16:36:19.431Z,11
2022-11-07T16:41:21.416Z,11
2022-11-07T16:46:23.465Z,10.9
2022-11-07T16:51:25.430Z,10.7
2022-11-07T16:56:27.484Z,10.4
2022-11-07T17:01:30.480Z,10.2
2022-11-07T17:06:32.720Z,10.2
2022-11-07T17:11:34.942Z,10.2
2022-11-07T17:16:36.995Z,10.1
2022-11-07T17:21:38.969Z,10.1
2022-11-07T17:26:41.009Z,10
2022-11-07T17:31:43.656Z,9.9
2022-11-07T17:36:45.942Z,9.8
2022-11-07T17:41:48.111Z,9.8
2022-11-07T17:46:50.139Z,9.7
2022-11-07T17:51:52.119Z,9.8
2022-11-07T17:56:54.369Z,9.6
2022-11-07T18:01:57.210Z,9.4
2022-11-07T18:06:59.732Z,9.3
2022-11-07T18:12:02.256Z,9.4
2022-11-07T18:17:04.238Z,9.3
2022-11-07T18:22:07.016Z,9.4
2022-11-07T18:27:12.492Z,9.4
2022-11-07T18:32:14.491Z,9.4
2022-11-07T18:37:16.504Z,9.4
2022-11-07T18:42:18.565Z,9.3
2022-11-07T18:47:21.004Z,9.2
2022-11-07T18:52:22.962Z,9.1
2022-11-07T18:57:24.952Z,9.1
2022-11-07T19:02:29.152Z,9.2
2022-11-07T19:07:31.372Z,9.2
2022-11-07T19:12:33.484Z,9.1
2022-11-07T19:17:35.424Z,9.2
2022-11-07T19:22:37.575Z,9.2
2022-11-07T19:27:40.063Z,9.2
2022-11-07T19:32:46.980Z,9.1
2022-11-07T19:37:49.508Z,9.1
2022-11-07T19:42:52.162Z,9.1
2022-11-07T19:47:54.260Z,9
2022-11-07T19:53:10.935Z,9.1
2022-11-07T19:58:05.335Z,9.1
2022-11-07T20:03:08.966Z,9
2022-11-07T20:08:11.364Z,8.9
2022-11-07T20:13:14.748Z,9
2022-11-07T20:18:18.756Z,8.9
2022-11-07T20:23:21.878Z,8.9
2022-11-07T20:28:24.580Z,8.9
2022-11-07T20:33:26.911Z,8.8
2022-11-07T20:38:29.050Z,8.8
2022-11-07T20:43:31.194Z,8.8
2022-11-07T20:48:33.235Z,8.7
2022-11-07T20:53:35.875Z,8.5
2022-11-07T20:58:37.933Z,8.5
2022-11-07T21:03:40.087Z,8.4
2022-11-07T21:08:42.287Z,8.3
2022-11-07T21:13:54.052Z,8
2022-11-07T21:18:46.208Z,8
2022-11-07T21:23:48.264Z,7.9
2022-11-07T21:28:50.276Z,7.8
2022-11-07T21:33:52.323Z,7.9
2022-11-07T21:38:54.583Z,7.9
2022-11-07T21:43:56.656Z,7.9
2022-11-07T21:48:58.818Z,8
2022-11-07T21:54:00.903Z,8.1
2022-11-07T21:59:02.990Z,8.1
2022-11-07T22:04:12.643Z,7.9
2022-11-07T22:09:06.968Z,7.9
2022-11-07T22:14:09.069Z,7.9
2022-11-07T22:19:14.509Z,7.9
2022-11-07T22:24:16.719Z,7.9
2022-11-07T22:29:18.725Z,7.9
2022-11-07T22:34:20.740Z,7.8
2022-11-07T22:39:22.748Z,7.7
2022-11-07T22:44:24.780Z,7.7
2022-11-07T22:49:33.483Z,7.6
2022-11-07T22:54:30.102Z,7.6
2022-11-07T23:04:34.906Z,7.4
2022-11-07T23:09:37.078Z,7.4
2022-11-07T23:14:39.154Z,7.3
2022-11-07T23:19:41.672Z,7.1
2022-11-07T23:24:43.653Z,7.1
2022-11-07T23:29:45.879Z,7.1
2022-11-07T23:34:47.979Z,7.1
2022-11-07T23:39:50.013Z,7
2022-11-07T23:44:52.194Z,7
2022-11-07T23:49:54.329Z,6.9
2022-11-07T23:54:56.580Z,6.8
2022-11-07T23:59:58.941Z,6.8
